KCOT/COT METAR and TAF weather

Enter ICAO airport designator
Station Type Date Time Source
KCOT METAR 2022/01/29 09:53 UTC NOAA

KCOT 290953Z AUTO 30003KT 10SM CLR 03/M02 A3045 RMK AO2 SLP311 T00281017


Station Type Date Time Source
KCOT Decoded METAR 2022/01/29 09:53 UTC NOAA

COTULLA-LASALLE COUNTY AIRPORT , TX, United States (KCOT) 28-27N 099-13W 140M
Jan 29, 2022 - 04:53 AM EST / 2022.01.29 0953 UTC
Wind: from the WNW (300 degrees) at 3 MPH (3 KT):0
Visibility: 10 mile(s):0
Sky conditions: clear
Temperature: 37.0 F (2.8 C)
Dew Point: 28.9 F (-1.7 C)
Relative Humidity: 72%
Pressure (altimeter): 30.45 in. Hg (1031 hPa)
ob: KCOT 290953Z AUTO 30003KT 10SM CLR 03/M02 A3045 RMK AO2 SLP311 T00281017
cycle: 10

Station Type Date Time Source
KCOT TAF 2022/01/29 06:21 UTC NOAA

TAF KCOT 290520Z 2906/3006 VRB03KT P6SM FEW250
FM292000 17007KT P6SM SCT250

Example: see airport list